sensor_id;sensor_type;location;lat;lon;timestamp;pressure;altitude;pressure_sealevel;temperature;humidity
21728;BME280;11026;50.560;17.852;2023-07-13T00:01:59;99170.84;;;19.51;100.00
21728;BME280;11026;50.560;17.852;2023-07-13T00:04:31;99173.50;;;19.62;100.00
21728;BME280;11026;50.560;17.852;2023-07-13T00:07:00;99168.25;;;19.61;100.00
21728;BME280;11026;50.560;17.852;2023-07-13T00:09:33;99158.59;;;19.58;100.00
21728;BME280;11026;50.560;17.852;2023-07-13T00:12:01;99161.19;;;19.60;100.00
21728;BME280;11026;50.560;17.852;2023-07-13T00:14:29;99148.72;;;19.59;100.00
21728;BME280;11026;50.560;17.852;2023-07-13T00:17:03;99153.06;;;19.50;100.00
21728;BME280;11026;50.560;17.852;2023-07-13T00:19:31;99156.13;;;19.67;100.00
21728;BME280;11026;50.560;17.852;2023-07-13T00:21:59;99150.66;;;19.68;100.00
21728;BME280;11026;50.560;17.852;2023-07-13T00:24:26;99149.47;;;19.61;100.00
21728;BME280;11026;50.560;17.852;2023-07-13T00:26:54;99147.25;;;19.45;100.00
21728;BME280;11026;50.560;17.852;2023-07-13T00:29:22;99150.47;;;19.39;100.00
21728;BME280;11026;50.560;17.852;2023-07-13T00:31:50;99162.84;;;19.30;100.00
21728;BME280;11026;50.560;17.852;2023-07-13T00:34:17;99168.44;;;19.27;100.00
21728;BME280;11026;50.560;17.852;2023-07-13T00:36:45;99162.66;;;19.22;100.00
21728;BME280;11026;50.560;17.852;2023-07-13T00:39:12;99159.78;;;19.14;100.00
21728;BME280;11026;50.560;17.852;2023-07-13T00:41:40;99159.81;;;19.03;100.00
21728;BME280;11026;50.560;17.852;2023-07-13T00:44:13;99162.66;;;19.01;100.00
21728;BME280;11026;50.560;17.852;2023-07-13T00:46:47;99175.31;;;18.99;100.00
21728;BME280;11026;50.560;17.852;2023-07-13T00:49:19;99163.88;;;18.97;100.00
21728;BME280;11026;50.560;17.852;2023-07-13T00:51:55;99161.81;;;19.01;100.00
21728;BME280;11026;50.560;17.852;2023-07-13T00:54:28;99164.25;;;18.92;100.00
21728;BME280;11026;50.560;17.852;2023-07-13T00:57:00;99172.44;;;18.91;100.00
21728;BME280;11026;50.560;17.852;2023-07-13T00:59:30;99152.09;;;18.88;100.00
21728;BME280;11026;50.560;17.852;2023-07-13T01:01:58;99151.59;;;18.95;100.00
21728;BME280;11026;50.560;17.852;2023-07-13T01:04:26;99139.44;;;18.90;100.00
21728;BME280;11026;50.560;17.852;2023-07-13T01:06:56;99131.53;;;18.89;100.00
21728;BME280;11026;50.560;17.852;2023-07-13T01:09:26;99145.97;;;18.98;100.00
21728;BME280;11026;50.560;17.852;2023-07-13T01:11:54;99153.28;;;18.96;100.00
21728;BME280;11026;50.560;17.852;2023-07-13T01:14:21;99166.22;;;18.90;100.00
21728;BME280;11026;50.560;17.852;2023-07-13T01:16:49;99158.84;;;18.83;100.00
21728;BME280;11026;50.560;17.852;2023-07-13T01:19:36;99148.47;;;18.89;100.00
21728;BME280;11026;50.560;17.852;2023-07-13T01:22:08;99145.50;;;18.92;100.00
21728;BME280;11026;50.560;17.852;2023-07-13T01:24:45;99135.00;;;19.01;100.00
21728;BME280;11026;50.560;17.852;2023-07-13T01:27:16;99135.38;;;19.17;100.00
21728;BME280;11026;50.560;17.852;2023-07-13T01:29:45;99134.22;;;19.10;100.00
21728;BME280;11026;50.560;17.852;2023-07-13T01:32:18;99131.13;;;19.14;100.00
21728;BME280;11026;50.560;17.852;2023-07-13T01:34:51;99115.63;;;19.18;100.00
21728;BME280;11026;50.560;17.852;2023-07-13T01:37:24;99114.38;;;19.22;100.00
21728;BME280;11026;50.560;17.852;2023-07-13T01:39:52;99108.75;;;19.25;100.00
21728;BME280;11026;50.560;17.852;2023-07-13T01:42:20;99105.59;;;19.20;100.00
21728;BME280;11026;50.560;17.852;2023-07-13T01:44:49;99111.25;;;19.17;100.00
21728;BME280;11026;50.560;17.852;2023-07-13T01:47:16;99109.69;;;19.14;100.00
21728;BME280;11026;50.560;17.852;2023-07-13T01:49:44;99104.72;;;19.10;100.00
21728;BME280;11026;50.560;17.852;2023-07-13T01:52:13;99101.13;;;19.00;100.00
21728;BME280;11026;50.560;17.852;2023-07-13T01:54:40;99110.41;;;18.96;100.00
21728;BME280;11026;50.560;17.852;2023-07-13T01:57:08;99111.38;;;18.95;100.00
21728;BME280;11026;50.560;17.852;2023-07-13T01:59:42;99118.53;;;19.05;100.00
21728;BME280;11026;50.560;17.852;2023-07-13T02:02:09;99119.38;;;19.06;100.00
21728;BME280;11026;50.560;17.852;2023-07-13T02:04:40;99133.28;;;19.00;100.00
21728;BME280;11026;50.560;17.852;2023-07-13T02:07:09;99134.13;;;19.00;100.00
21728;BME280;11026;50.560;17.852;2023-07-13T02:09:36;99126.53;;;18.84;100.00
21728;BME280;11026;50.560;17.852;2023-07-13T02:12:04;99129.50;;;18.81;100.00
21728;BME280;11026;50.560;17.852;2023-07-13T02:14:32;99119.03;;;18.78;100.00
21728;BME280;11026;50.560;17.852;2023-07-13T02:16:59;99128.16;;;18.76;100.00
21728;BME280;11026;50.560;17.852;2023-07-13T02:19:27;99119.44;;;18.74;100.00
21728;BME280;11026;50.560;17.852;2023-07-13T02:21:54;99114.13;;;18.83;100.00
21728;BME280;11026;50.560;17.852;2023-07-13T02:24:21;99103.41;;;18.83;100.00
21728;BME280;11026;50.560;17.852;2023-07-13T02:26:49;99093.47;;;18.74;100.00
21728;BME280;11026;50.560;17.852;2023-07-13T02:29:17;99090.66;;;18.76;100.00
21728;BME280;11026;50.560;17.852;2023-07-13T02:31:45;99087.03;;;18.65;100.00
21728;BME280;11026;50.560;17.852;2023-07-13T02:34:12;99085.84;;;18.58;100.00
21728;BME280;11026;50.560;17.852;2023-07-13T02:36:40;99072.81;;;18.65;100.00
21728;BME280;11026;50.560;17.852;2023-07-13T02:39:09;99076.94;;;18.69;100.00
21728;BME280;11026;50.560;17.852;2023-07-13T02:41:44;99086.69;;;18.59;100.00
21728;BME280;11026;50.560;17.852;2023-07-13T02:44:15;99088.06;;;18.53;100.00
21728;BME280;11026;50.560;17.852;2023-07-13T02:46:42;99076.38;;;18.54;100.00
21728;BME280;11026;50.560;17.852;2023-07-13T02:49:11;99078.59;;;18.49;100.00
21728;BME280;11026;50.560;17.852;2023-07-13T02:51:57;99091.72;;;18.52;100.00
21728;BME280;11026;50.560;17.852;2023-07-13T02:54:25;99094.06;;;18.46;100.00
21728;BME280;11026;50.560;17.852;2023-07-13T02:56:53;99088.31;;;18.50;100.00
21728;BME280;11026;50.560;17.852;2023-07-13T02:59:20;99100.94;;;18.59;100.00
21728;BME280;11026;50.560;17.852;2023-07-13T03:01:48;99102.53;;;18.62;100.00
21728;BME280;11026;50.560;17.852;2023-07-13T03:04:16;99103.03;;;18.56;100.00
21728;BME280;11026;50.560;17.852;2023-07-13T03:06:54;99119.19;;;18.33;100.00
21728;BME280;11026;50.560;17.852;2023-07-13T03:09:25;99127.06;;;18.03;100.00
21728;BME280;11026;50.560;17.852;2023-07-13T03:11:54;99141.66;;;17.87;100.00
21728;BME280;11026;50.560;17.852;2023-07-13T03:14:24;99132.88;;;17.97;100.00
21728;BME280;11026;50.560;17.852;2023-07-13T03:16:52;99129.22;;;18.09;100.00
21728;BME280;11026;50.560;17.852;2023-07-13T03:19:21;99133.94;;;18.16;100.00
21728;BME280;11026;50.560;17.852;2023-07-13T03:21:49;99136.72;;;18.26;100.00
21728;BME280;11026;50.560;17.852;2023-07-13T03:24:16;99133.03;;;18.38;100.00
21728;BME280;11026;50.560;17.852;2023-07-13T03:26:44;99136.19;;;18.43;100.00
21728;BME280;11026;50.560;17.852;2023-07-13T03:29:11;99129.81;;;18.56;100.00
21728;BME280;11026;50.560;17.852;2023-07-13T03:31:39;99120.53;;;18.60;100.00
21728;BME280;11026;50.560;17.852;2023-07-13T03:34:07;99123.00;;;18.52;100.00
21728;BME280;11026;50.560;17.852;2023-07-13T03:36:35;99123.38;;;18.47;100.00
21728;BME280;11026;50.560;17.852;2023-07-13T03:39:03;99123.25;;;18.49;100.00
21728;BME280;11026;50.560;17.852;2023-07-13T03:41:30;99115.75;;;18.42;100.00
21728;BME280;11026;50.560;17.852;2023-07-13T03:43:58;99116.13;;;18.38;100.00
21728;BME280;11026;50.560;17.852;2023-07-13T03:46:26;99124.25;;;18.48;100.00
21728;BME280;11026;50.560;17.852;2023-07-13T03:48:54;99129.59;;;18.48;100.00
21728;BME280;11026;50.560;17.852;2023-07-13T03:51:21;99135.31;;;18.54;100.00
21728;BME280;11026;50.560;17.852;2023-07-13T03:53:49;99130.94;;;18.53;100.00
21728;BME280;11026;50.560;17.852;2023-07-13T03:56:19;99132.69;;;18.64;100.00
21728;BME280;11026;50.560;17.852;2023-07-13T03:58:48;99128.78;;;18.68;100.00
21728;BME280;11026;50.560;17.852;2023-07-13T04:01:18;99143.41;;;18.64;100.00
21728;BME280;11026;50.560;17.852;2023-07-13T04:03:46;99153.44;;;18.51;100.00
21728;BME280;11026;50.560;17.852;2023-07-13T04:06:29;99166.06;;;18.60;100.00
21728;BME280;11026;50.560;17.852;2023-07-13T04:09:02;99164.44;;;18.80;100.00
21728;BME280;11026;50.560;17.852;2023-07-13T04:11:33;99173.53;;;18.88;100.00
21728;BME280;11026;50.560;17.852;2023-07-13T04:14:03;99177.00;;;19.00;100.00
21728;BME280;11026;50.560;17.852;2023-07-13T04:16:31;99183.84;;;19.25;100.00
21728;BME280;11026;50.560;17.852;2023-07-13T04:18:58;99190.38;;;19.32;100.00
21728;BME280;11026;50.560;17.852;2023-07-13T04:21:30;99189.25;;;19.35;100.00
21728;BME280;11026;50.560;17.852;2023-07-13T04:23:59;99188.34;;;19.46;100.00
21728;BME280;11026;50.560;17.852;2023-07-13T04:26:27;99184.84;;;19.55;100.00
21728;BME280;11026;50.560;17.852;2023-07-13T04:28:59;99175.38;;;19.51;100.00
21728;BME280;11026;50.560;17.852;2023-07-13T04:31:27;99182.84;;;19.68;100.00
21728;BME280;11026;50.560;17.852;2023-07-13T04:33:55;99191.66;;;19.80;100.00
21728;BME280;11026;50.560;17.852;2023-07-13T04:36:24;99183.81;;;19.67;100.00
21728;BME280;11026;50.560;17.852;2023-07-13T04:38:55;99183.59;;;19.59;100.00
21728;BME280;11026;50.560;17.852;2023-07-13T04:41:22;99189.22;;;19.56;100.00
21728;BME280;11026;50.560;17.852;2023-07-13T04:43:50;99181.06;;;19.57;100.00
21728;BME280;11026;50.560;17.852;2023-07-13T04:46:17;99183.81;;;19.46;100.00
21728;BME280;11026;50.560;17.852;2023-07-13T04:48:46;99189.34;;;19.45;100.00
21728;BME280;11026;50.560;17.852;2023-07-13T04:51:19;99183.81;;;19.46;100.00
21728;BME280;11026;50.560;17.852;2023-07-13T04:53:48;99164.97;;;19.57;100.00
21728;BME280;11026;50.560;17.852;2023-07-13T04:56:17;99166.47;;;19.71;100.00
21728;BME280;11026;50.560;17.852;2023-07-13T04:58:52;99165.84;;;19.88;100.00
21728;BME280;11026;50.560;17.852;2023-07-13T05:01:20;99173.50;;;20.03;100.00
21728;BME280;11026;50.560;17.852;2023-07-13T05:03:47;99179.19;;;20.00;100.00
21728;BME280;11026;50.560;17.852;2023-07-13T05:06:14;99182.47;;;20.13;100.00
21728;BME280;11026;50.560;17.852;2023-07-13T05:08:42;99169.03;;;20.23;100.00
21728;BME280;11026;50.560;17.852;2023-07-13T05:11:09;99166.97;;;20.36;100.00
21728;BME280;11026;50.560;17.852;2023-07-13T05:13:37;99168.53;;;20.48;100.00
21728;BME280;11026;50.560;17.852;2023-07-13T05:16:05;99164.19;;;20.57;100.00
21728;BME280;11026;50.560;17.852;2023-07-13T05:18:36;99163.06;;;20.69;100.00
21728;BME280;11026;50.560;17.852;2023-07-13T05:21:10;99165.34;;;20.74;100.00
21728;BME280;11026;50.560;17.852;2023-07-13T05:23:39;99173.69;;;20.80;100.00
21728;BME280;11026;50.560;17.852;2023-07-13T05:26:08;99175.53;;;20.90;100.00
21728;BME280;11026;50.560;17.852;2023-07-13T05:28:36;99182.59;;;21.00;100.00
21728;BME280;11026;50.560;17.852;2023-07-13T05:31:04;99193.66;;;21.07;100.00
21728;BME280;11026;50.560;17.852;2023-07-13T05:33:34;99203.00;;;21.03;100.00
21728;BME280;11026;50.560;17.852;2023-07-13T05:36:02;99201.69;;;20.97;100.00
21728;BME280;11026;50.560;17.852;2023-07-13T05:38:30;99211.06;;;21.03;100.00
21728;BME280;11026;50.560;17.852;2023-07-13T05:40:58;99218.97;;;20.95;100.00
21728;BME280;11026;50.560;17.852;2023-07-13T05:43:29;99221.09;;;20.72;100.00
21728;BME280;11026;50.560;17.852;2023-07-13T05:45:57;99225.28;;;20.55;100.00
21728;BME280;11026;50.560;17.852;2023-07-13T05:48:25;99241.03;;;20.38;100.00
21728;BME280;11026;50.560;17.852;2023-07-13T05:50:53;99237.31;;;20.20;100.00
21728;BME280;11026;50.560;17.852;2023-07-13T05:53:21;99245.72;;;20.06;100.00
21728;BME280;11026;50.560;17.852;2023-07-13T05:55:49;99256.22;;;20.09;100.00
21728;BME280;11026;50.560;17.852;2023-07-13T05:58:19;99256.91;;;20.11;100.00
21728;BME280;11026;50.560;17.852;2023-07-13T06:00:47;99265.97;;;20.10;100.00
21728;BME280;11026;50.560;17.852;2023-07-13T06:03:15;99253.38;;;20.10;100.00
21728;BME280;11026;50.560;17.852;2023-07-13T06:05:42;99254.97;;;20.13;100.00
21728;BME280;11026;50.560;17.852;2023-07-13T06:08:10;99250.88;;;20.19;100.00
21728;BME280;11026;50.560;17.852;2023-07-13T06:10:37;99263.88;;;20.23;100.00
21728;BME280;11026;50.560;17.852;2023-07-13T06:13:05;99271.78;;;20.15;100.00
21728;BME280;11026;50.560;17.852;2023-07-13T06:15:32;99266.50;;;20.04;100.00
21728;BME280;11026;50.560;17.852;2023-07-13T06:18:00;99265.78;;;20.02;100.00
21728;BME280;11026;50.560;17.852;2023-07-13T06:20:28;99258.97;;;19.98;100.00
21728;BME280;11026;50.560;17.852;2023-07-13T06:22:57;99273.91;;;19.90;100.00
21728;BME280;11026;50.560;17.852;2023-07-13T06:25:26;99275.16;;;19.86;100.00
21728;BME280;11026;50.560;17.852;2023-07-13T06:27:54;99279.16;;;19.71;100.00
21728;BME280;11026;50.560;17.852;2023-07-13T06:30:21;99288.75;;;19.64;100.00
21728;BME280;11026;50.560;17.852;2023-07-13T06:32:49;99283.84;;;19.58;100.00
21728;BME280;11026;50.560;17.852;2023-07-13T06:35:17;99282.56;;;19.52;100.00
21728;BME280;11026;50.560;17.852;2023-07-13T06:37:44;99284.06;;;19.45;100.00
21728;BME280;11026;50.560;17.852;2023-07-13T06:40:18;99281.16;;;19.37;100.00
21728;BME280;11026;50.560;17.852;2023-07-13T06:42:45;99288.16;;;19.28;100.00
21728;BME280;11026;50.560;17.852;2023-07-13T06:45:13;99283.75;;;19.27;100.00
21728;BME280;11026;50.560;17.852;2023-07-13T06:47:40;99281.00;;;19.17;100.00
21728;BME280;11026;50.560;17.852;2023-07-13T06:50:09;99283.31;;;19.22;100.00
21728;BME280;11026;50.560;17.852;2023-07-13T06:52:36;99271.63;;;19.12;100.00
21728;BME280;11026;50.560;17.852;2023-07-13T06:55:04;99283.38;;;19.00;100.00
21728;BME280;11026;50.560;17.852;2023-07-13T06:57:31;99291.72;;;18.85;100.00
21728;BME280;11026;50.560;17.852;2023-07-13T06:59:59;99296.59;;;18.80;100.00
21728;BME280;11026;50.560;17.852;2023-07-13T07:02:26;99305.75;;;18.78;100.00
21728;BME280;11026;50.560;17.852;2023-07-13T07:04:54;99307.19;;;18.82;100.00
21728;BME280;11026;50.560;17.852;2023-07-13T07:07:24;99303.16;;;18.76;100.00
21728;BME280;11026;50.560;17.852;2023-07-13T07:09:52;99298.94;;;18.74;100.00
21728;BME280;11026;50.560;17.852;2023-07-13T07:12:19;99299.25;;;18.80;100.00
21728;BME280;11026;50.560;17.852;2023-07-13T07:14:47;99291.72;;;18.85;100.00
21728;BME280;11026;50.560;17.852;2023-07-13T07:17:14;99286.81;;;18.90;100.00
21728;BME280;11026;50.560;17.852;2023-07-13T07:19:48;99297.09;;;18.85;100.00
21728;BME280;11026;50.560;17.852;2023-07-13T07:22:15;99292.34;;;18.78;100.00
21728;BME280;11026;50.560;17.852;2023-07-13T07:24:42;99298.41;;;18.80;100.00
21728;BME280;11026;50.560;17.852;2023-07-13T07:27:10;99295.63;;;18.81;100.00
21728;BME280;11026;50.560;17.852;2023-07-13T07:29:40;99314.50;;;18.80;100.00
21728;BME280;11026;50.560;17.852;2023-07-13T07:32:13;99313.03;;;18.76;100.00
21728;BME280;11026;50.560;17.852;2023-07-13T07:35:00;99325.81;;;18.83;100.00
21728;BME280;11026;50.560;17.852;2023-07-13T07:37:28;99330.94;;;18.86;100.00
21728;BME280;11026;50.560;17.852;2023-07-13T07:39:58;99340.91;;;18.84;100.00
21728;BME280;11026;50.560;17.852;2023-07-13T07:42:29;99349.44;;;18.89;100.00
21728;BME280;11026;50.560;17.852;2023-07-13T07:44:56;99358.69;;;18.97;100.00
21728;BME280;11026;50.560;17.852;2023-07-13T07:47:24;99368.53;;;18.96;100.00
21728;BME280;11026;50.560;17.852;2023-07-13T07:49:52;99382.00;;;18.85;100.00
21728;BME280;11026;50.560;17.852;2023-07-13T07:52:19;99389.19;;;18.73;100.00
21728;BME280;11026;50.560;17.852;2023-07-13T07:54:47;99395.22;;;18.64;100.00
21728;BME280;11026;50.560;17.852;2023-07-13T07:57:17;99399.72;;;18.52;100.00
21728;BME280;11026;50.560;17.852;2023-07-13T08:00:05;99411.31;;;18.41;100.00
21728;BME280;11026;50.560;17.852;2023-07-13T08:02:35;99403.88;;;18.34;100.00
21728;BME280;11026;50.560;17.852;2023-07-13T08:05:05;99433.03;;;18.14;100.00
21728;BME280;11026;50.560;17.852;2023-07-13T08:07:38;99431.97;;;17.93;100.00
21728;BME280;11026;50.560;17.852;2023-07-13T08:10:07;99423.41;;;17.77;100.00
21728;BME280;11026;50.560;17.852;2023-07-13T08:12:36;99430.00;;;17.60;100.00
21728;BME280;11026;50.560;17.852;2023-07-13T08:15:11;99444.34;;;17.59;100.00
21728;BME280;11026;50.560;17.852;2023-07-13T08:17:41;99442.34;;;17.50;100.00
21728;BME280;11026;50.560;17.852;2023-07-13T08:20:11;99443.94;;;17.52;100.00
21728;BME280;11026;50.560;17.852;2023-07-13T08:22:38;99442.97;;;17.53;100.00
21728;BME280;11026;50.560;17.852;2023-07-13T08:25:06;99440.13;;;17.43;100.00
21728;BME280;11026;50.560;17.852;2023-07-13T08:27:34;99446.31;;;17.44;100.00
21728;BME280;11026;50.560;17.852;2023-07-13T08:30:04;99446.84;;;17.49;100.00
21728;BME280;11026;50.560;17.852;2023-07-13T08:32:32;99456.34;;;17.53;100.00
21728;BME280;11026;50.560;17.852;2023-07-13T08:35:00;99466.22;;;17.40;100.00
21728;BME280;11026;50.560;17.852;2023-07-13T08:37:27;99471.88;;;17.48;100.00
21728;BME280;11026;50.560;17.852;2023-07-13T08:39:55;99480.56;;;17.39;100.00
21728;BME280;11026;50.560;17.852;2023-07-13T08:42:44;99485.09;;;17.26;100.00
21728;BME280;11026;50.560;17.852;2023-07-13T08:48:20;99459.00;;;17.29;100.00
21728;BME280;11026;50.560;17.852;2023-07-13T08:50:55;99432.94;;;17.20;100.00
21728;BME280;11026;50.560;17.852;2023-07-13T08:53:46;99426.47;;;17.35;100.00
21728;BME280;11026;50.560;17.852;2023-07-13T08:56:25;99426.69;;;17.32;100.00
21728;BME280;11026;50.560;17.852;2023-07-13T08:59:11;99434.53;;;17.23;100.00
21728;BME280;11026;50.560;17.852;2023-07-13T09:01:53;99427.81;;;17.17;100.00
21728;BME280;11026;50.560;17.852;2023-07-13T09:04:32;99390.59;;;17.27;100.00
21728;BME280;11026;50.560;17.852;2023-07-13T09:07:11;99384.59;;;17.47;100.00
21728;BME280;11026;50.560;17.852;2023-07-13T09:12:40;99407.25;;;17.78;100.00
21728;BME280;11026;50.560;17.852;2023-07-13T09:15:26;99421.13;;;17.83;100.00
21728;BME280;11026;50.560;17.852;2023-07-13T09:18:08;99402.44;;;17.94;100.00
21728;BME280;11026;50.560;17.852;2023-07-13T09:20:42;99397.34;;;18.03;100.00
21728;BME280;11026;50.560;17.852;2023-07-13T09:23:17;99400.16;;;18.12;100.00
21728;BME280;11026;50.560;17.852;2023-07-13T09:25:53;99418.00;;;18.01;100.00
21728;BME280;11026;50.560;17.852;2023-07-13T09:28:34;99419.66;;;17.79;100.00
21728;BME280;11026;50.560;17.852;2023-07-13T09:33:35;99417.22;;;17.76;100.00
21728;BME280;11026;50.560;17.852;2023-07-13T09:39:10;99402.66;;;17.91;100.00
21728;BME280;11026;50.560;17.852;2023-07-13T09:44:34;99413.59;;;17.88;100.00
21728;BME280;11026;50.560;17.852;2023-07-13T09:47:03;99406.91;;;17.83;100.00
21728;BME280;11026;50.560;17.852;2023-07-13T09:49:35;99409.88;;;18.02;100.00
21728;BME280;11026;50.560;17.852;2023-07-13T09:52:11;99412.25;;;18.29;100.00
21728;BME280;11026;50.560;17.852;2023-07-13T09:54:38;99415.06;;;18.39;100.00
21728;BME280;11026;50.560;17.852;2023-07-13T09:57:22;99428.31;;;18.29;100.00
21728;BME280;11026;50.560;17.852;2023-07-13T10:00:00;99416.38;;;18.22;100.00
21728;BME280;11026;50.560;17.852;2023-07-13T10:02:33;99415.88;;;18.28;100.00
21728;BME280;11026;50.560;17.852;2023-07-13T10:05:06;99413.94;;;18.19;100.00
21728;BME280;11026;50.560;17.852;2023-07-13T10:07:39;99408.84;;;18.27;100.00
21728;BME280;11026;50.560;17.852;2023-07-13T10:10:18;99418.31;;;18.20;100.00
21728;BME280;11026;50.560;17.852;2023-07-13T10:12:49;99425.63;;;18.40;100.00
21728;BME280;11026;50.560;17.852;2023-07-13T10:15:20;99422.25;;;18.61;100.00
21728;BME280;11026;50.560;17.852;2023-07-13T10:17:53;99427.88;;;18.58;100.00
21728;BME280;11026;50.560;17.852;2023-07-13T10:20:23;99433.91;;;18.26;100.00
21728;BME280;11026;50.560;17.852;2023-07-13T10:22:56;99440.84;;;18.17;100.00
21728;BME280;11026;50.560;17.852;2023-07-13T10:25:36;99445.03;;;18.09;100.00
21728;BME280;11026;50.560;17.852;2023-07-13T10:28:30;99446.69;;;18.23;100.00
21728;BME280;11026;50.560;17.852;2023-07-13T10:31:10;99453.59;;;18.14;100.00
21728;BME280;11026;50.560;17.852;2023-07-13T10:33:39;99450.44;;;18.20;100.00
21728;BME280;11026;50.560;17.852;2023-07-13T10:38:54;99451.63;;;18.16;100.00
21728;BME280;11026;50.560;17.852;2023-07-13T10:41:27;99452.94;;;17.99;100.00
21728;BME280;11026;50.560;17.852;2023-07-13T10:43:57;99448.34;;;18.12;100.00
21728;BME280;11026;50.560;17.852;2023-07-13T10:46:27;99448.56;;;18.56;100.00
21728;BME280;11026;50.560;17.852;2023-07-13T10:49:01;99448.84;;;18.75;100.00
21728;BME280;11026;50.560;17.852;2023-07-13T10:56:46;99450.91;;;18.72;100.00
21728;BME280;11026;50.560;17.852;2023-07-13T10:59:23;99458.59;;;18.87;100.00
21728;BME280;11026;50.560;17.852;2023-07-13T11:01:58;99462.00;;;19.01;100.00
21728;BME280;11026;50.560;17.852;2023-07-13T11:04:46;99473.91;;;19.30;100.00
21728;BME280;11026;50.560;17.852;2023-07-13T11:10:51;99473.94;;;19.85;100.00
21728;BME280;11026;50.560;17.852;2023-07-13T11:13:39;99470.28;;;20.07;100.00
21728;BME280;11026;50.560;17.852;2023-07-13T11:19:21;99480.56;;;20.02;100.00
21728;BME280;11026;50.560;17.852;2023-07-13T11:24:58;99486.38;;;20.07;100.00
21728;BME280;11026;50.560;17.852;2023-07-13T11:28:16;99481.16;;;20.05;100.00
21728;BME280;11026;50.560;17.852;2023-07-13T11:30:46;99490.84;;;20.50;100.00
21728;BME280;11026;50.560;17.852;2023-07-13T11:33:24;99490.03;;;20.80;100.00
21728;BME280;11026;50.560;17.852;2023-07-13T11:38:36;99474.78;;;21.21;100.00
21728;BME280;11026;50.560;17.852;2023-07-13T11:41:36;99486.22;;;21.44;100.00
21728;BME280;11026;50.560;17.852;2023-07-13T11:44:12;99491.31;;;21.47;100.00
21728;BME280;11026;50.560;17.852;2023-07-13T11:46:45;99494.75;;;21.68;95.54
21728;BME280;11026;50.560;17.852;2023-07-13T11:49:17;99484.88;;;21.98;89.73
21728;BME280;11026;50.560;17.852;2023-07-13T11:51:46;99487.72;;;22.16;89.60
21728;BME280;11026;50.560;17.852;2023-07-13T11:54:30;99480.19;;;22.39;91.10
21728;BME280;11026;50.560;17.852;2023-07-13T11:57:23;99477.09;;;22.90;90.32
21728;BME280;11026;50.560;17.852;2023-07-13T11:59:55;99489.19;;;23.23;83.01
21728;BME280;11026;50.560;17.852;2023-07-13T12:02:26;99485.41;;;23.62;83.46
21728;BME280;11026;50.560;17.852;2023-07-13T12:04:58;99484.47;;;23.80;82.38
21728;BME280;11026;50.560;17.852;2023-07-13T12:07:29;99483.47;;;23.82;83.07
21728;BME280;11026;50.560;17.852;2023-07-13T12:10:17;99477.47;;;23.88;80.50
21728;BME280;11026;50.560;17.852;2023-07-13T12:12:52;99478.84;;;23.92;79.01
21728;BME280;11026;50.560;17.852;2023-07-13T12:15:21;99472.38;;;23.85;75.34
21728;BME280;11026;50.560;17.852;2023-07-13T12:17:50;99466.72;;;23.78;76.59
21728;BME280;11026;50.560;17.852;2023-07-13T12:20:23;99469.75;;;23.93;78.54
21728;BME280;11026;50.560;17.852;2023-07-13T12:22:51;99462.78;;;24.08;76.39
21728;BME280;11026;50.560;17.852;2023-07-13T12:25:25;99475.19;;;24.19;76.41
21728;BME280;11026;50.560;17.852;2023-07-13T12:27:53;99474.50;;;23.99;77.12
21728;BME280;11026;50.560;17.852;2023-07-13T12:30:28;99468.94;;;24.18;74.95
21728;BME280;11026;50.560;17.852;2023-07-13T12:33:08;99481.09;;;23.96;78.98
21728;BME280;11026;50.560;17.852;2023-07-13T12:35:46;99477.06;;;24.00;76.43
21728;BME280;11026;50.560;17.852;2023-07-13T12:38:16;99475.97;;;24.11;78.05
21728;BME280;11026;50.560;17.852;2023-07-13T12:40:51;99480.25;;;23.96;75.59
21728;BME280;11026;50.560;17.852;2023-07-13T12:43:21;99464.47;;;24.09;75.15
21728;BME280;11026;50.560;17.852;2023-07-13T12:46:17;99479.97;;;24.07;70.27
21728;BME280;11026;50.560;17.852;2023-07-13T12:48:51;99468.69;;;24.29;68.48
21728;BME280;11026;50.560;17.852;2023-07-13T12:51:34;99474.19;;;24.90;67.86
21728;BME280;11026;50.560;17.852;2023-07-13T12:54:22;99476.63;;;25.27;63.55
21728;BME280;11026;50.560;17.852;2023-07-13T12:56:52;99463.69;;;25.55;63.51
21728;BME280;11026;50.560;17.852;2023-07-13T12:59:22;99469.72;;;25.99;62.85
21728;BME280;11026;50.560;17.852;2023-07-13T13:01:50;99462.81;;;26.54;61.70
21728;BME280;11026;50.560;17.852;2023-07-13T13:04:19;99457.63;;;26.92;59.53
21728;BME280;11026;50.560;17.852;2023-07-13T13:07:00;99463.38;;;26.97;59.79
21728;BME280;11026;50.560;17.852;2023-07-13T13:09:34;99457.66;;;26.76;58.52
21728;BME280;11026;50.560;17.852;2023-07-13T13:12:02;99460.41;;;26.51;59.12
21728;BME280;11026;50.560;17.852;2023-07-13T13:14:29;99474.59;;;26.94;59.56
21728;BME280;11026;50.560;17.852;2023-07-13T13:16:57;99475.38;;;27.19;56.84
21728;BME280;11026;50.560;17.852;2023-07-13T13:19:31;99473.88;;;27.48;56.29
21728;BME280;11026;50.560;17.852;2023-07-13T13:22:00;99478.78;;;27.83;55.77
21728;BME280;11026;50.560;17.852;2023-07-13T13:24:27;99476.53;;;27.56;54.67
21728;BME280;11026;50.560;17.852;2023-07-13T13:26:57;99479.13;;;27.18;53.37
21728;BME280;11026;50.560;17.852;2023-07-13T13:29:25;99475.88;;;27.23;55.16
21728;BME280;11026;50.560;17.852;2023-07-13T13:31:54;99478.03;;;27.27;54.76
21728;BME280;11026;50.560;17.852;2023-07-13T13:34:24;99476.94;;;27.13;56.54
21728;BME280;11026;50.560;17.852;2023-07-13T13:36:53;99473.63;;;27.34;54.53